Time;durP1;ratioP1;P1;durP2;ratioP2;P2;SDS_P1;SDS_P2;PMS_P1;PMS_P2;Temp;Humidity;BMP_temperature;BMP_pressure;BME280_temperature;BME280_humidity;BME280_pressure;Samples;Min_cycle;Max_cycle;Signal;HPM_P1;HPM_P2
2022/07/17 00:01:22;;;;;;;6.87;2.50;;;10.70;78.50;;;;;;5006422;28;20038;-67
2022/07/17 00:03:48;;;;;;;5.50;2.50;;;10.70;79.00;;;;;;5004683;28;20036;-66
2022/07/17 00:06:14;;;;;;;5.95;2.80;;;10.70;79.20;;;;;;4974563;28;20042;-67
2022/07/17 00:08:40;;;;;;;5.10;2.57;;;10.60;78.50;;;;;;4980701;28;20053;-67
2022/07/17 00:11:06;;;;;;;8.17;2.73;;;10.60;79.20;;;;;;5019904;28;20125;-67
2022/07/17 00:13:31;;;;;;;6.50;2.87;;;10.60;80.10;;;;;;5007785;28;20422;-67
2022/07/17 00:15:58;;;;;;;9.90;3.33;;;10.60;80.00;;;;;;5007965;28;20038;-67
2022/07/17 00:18:23;;;;;;;5.40;2.88;;;10.50;79.90;;;;;;5007429;28;20045;-67
2022/07/17 00:20:49;;;;;;;5.93;2.50;;;10.50;80.00;;;;;;5015140;28;20103;-67
2022/07/17 00:23:15;;;;;;;5.77;3.00;;;10.50;81.10;;;;;;5005986;28;20045;-67
2022/07/17 00:25:40;;;;;;;6.00;2.90;;;10.50;80.50;;;;;;5008980;28;20037;-68
2022/07/17 00:28:06;;;;;;;7.37;3.30;;;10.50;80.00;;;;;;4991724;28;20046;-68
2022/07/17 00:30:32;;;;;;;7.40;2.70;;;10.40;79.60;;;;;;4990575;28;20479;-68
2022/07/17 00:32:57;;;;;;;7.27;3.07;;;10.40;79.00;;;;;;5002895;28;20078;-68
2022/07/17 00:35:24;;;;;;;4.93;2.83;;;10.40;79.00;;;;;;4991284;28;20077;-68
2022/07/17 00:37:49;;;;;;;7.57;3.30;;;10.40;78.70;;;;;;5007846;28;20046;-68
2022/07/17 00:40:23;;;;;;;6.90;3.23;;;10.40;79.20;;;;;;5006799;28;20599;-68
2022/07/17 00:42:49;;;;;;;7.80;3.40;;;10.40;79.20;;;;;;5010584;28;20042;-68
2022/07/17 00:45:16;;;;;;;5.55;3.10;;;10.40;80.10;;;;;;5002148;28;20042;-68
2022/07/17 00:48:03;;;;;;;6.05;3.15;;;10.40;80.70;;;;;;5003309;28;20041;-68
2022/07/17 00:50:38;;;;;;;4.60;2.78;;;10.30;80.70;;;;;;5006694;28;20092;-68
2022/07/17 00:53:04;;;;;;;;;;;10.30;80.50;;;;;;5013135;28;20041;-68
2022/07/17 00:55:31;;;;;;;6.72;3.08;;;10.30;80.40;;;;;;4997249;28;20278;-68
2022/07/17 00:58:00;;;;;;;4.40;3.03;;;10.30;79.80;;;;;;4990297;28;20049;-68
2022/07/17 01:00:26;;;;;;;5.35;2.80;;;10.30;79.40;;;;;;5007192;28;20073;-69
2022/07/17 01:02:53;;;;;;;6.28;3.17;;;10.30;79.10;;;;;;5002546;28;20113;-67
2022/07/17 01:05:20;;;;;;;8.77;3.40;;;10.30;79.70;;;;;;5007269;28;20046;-67
2022/07/17 01:07:46;;;;;;;5.75;3.38;;;10.30;80.30;;;;;;4973962;28;20481;-68
2022/07/17 01:10:14;;;;;;;5.38;3.10;;;10.30;81.10;;;;;;4990309;28;20072;-68
2022/07/17 01:12:42;;;;;;;6.22;3.17;;;10.20;80.90;;;;;;5005530;28;20050;-68
2022/07/17 01:15:09;;;;;;;8.85;3.13;;;10.20;80.80;;;;;;5006191;28;20040;-68
2022/07/17 01:17:36;;;;;;;6.82;2.83;;;10.20;81.10;;;;;;5006913;28;20060;-68
2022/07/17 01:20:12;;;;;;;5.53;3.40;;;10.20;81.10;;;;;;5005570;28;20088;-68
2022/07/17 01:22:46;;;;;;;7.32;3.45;;;10.20;82.00;;;;;;5005862;28;20088;-68
2022/07/17 01:25:13;;;;;;;7.95;3.42;;;10.10;82.50;;;;;;5005882;28;20406;-67
2022/07/17 01:27:40;;;;;;;4.68;3.13;;;10.10;82.50;;;;;;4990618;28;20041;-68
2022/07/17 01:30:07;;;;;;;6.60;2.70;;;10.10;82.30;;;;;;4990232;28;20041;-68
2022/07/17 01:32:35;;;;;;;7.80;2.72;;;10.10;81.90;;;;;;5002752;28;20069;-68
2022/07/17 01:35:01;;;;;;;4.75;2.30;;;10.10;81.70;;;;;;5004657;28;20499;-68
2022/07/17 01:37:28;;;;;;;2.75;2.15;;;10.10;81.50;;;;;;4997203;28;20145;-68
2022/07/17 01:39:54;;;;;;;4.00;2.15;;;10.10;81.90;;;;;;4988839;28;20099;-68
2022/07/17 01:42:21;;;;;;;4.10;2.27;;;10.20;83.40;;;;;;5020768;28;20585;-68
2022/07/17 01:44:47;;;;;;;4.55;2.13;;;10.10;83.30;;;;;;5005865;28;20042;-68
2022/07/17 01:47:14;;;;;;;4.23;2.20;;;10.10;83.70;;;;;;5005097;28;20497;-68
2022/07/17 01:49:44;;;;;;;5.45;2.45;;;10.10;83.80;;;;;;5006175;28;20034;-68
2022/07/17 01:52:10;;;;;;;4.65;2.70;;;10.10;83.70;;;;;;4994692;28;20046;-68
2022/07/17 01:54:35;;;;;;;4.70;2.90;;;10.10;83.90;;;;;;4949974;28;20093;-68
2022/07/17 01:57:01;;;;;;;6.47;2.90;;;10.10;84.10;;;;;;4989894;28;20045;-68
2022/07/17 01:59:27;;;;;;;8.37;2.67;;;10.10;84.20;;;;;;5005660;28;20438;-68
2022/07/17 02:01:52;;;;;;;4.57;2.80;;;10.10;84.20;;;;;;4969300;28;20522;-68
2022/07/17 02:04:18;;;;;;;4.90;2.97;;;10.10;84.00;;;;;;4994325;28;20450;-68
2022/07/17 02:06:44;;;;;;;5.93;3.17;;;10.10;83.60;;;;;;5005220;28;20085;-68
2022/07/17 02:09:09;;;;;;;6.43;2.57;;;10.10;83.00;;;;;;5005540;28;20050;-67
2022/07/17 02:11:35;;;;;;;5.60;3.13;;;10.10;82.50;;;;;;5005776;28;20240;-69
2022/07/17 02:14:01;;;;;;;5.57;2.30;;;10.20;82.20;;;;;;4999418;28;20042;-69
2022/07/17 02:16:26;;;;;;;4.57;2.40;;;10.20;82.00;;;;;;4989481;28;20354;-69
2022/07/17 02:18:52;;;;;;;3.87;2.30;;;10.20;81.70;;;;;;5005681;28;20052;-69
2022/07/17 02:21:18;;;;;;;7.50;2.93;;;10.10;81.50;;;;;;5003248;28;20454;-69
2022/07/17 02:23:43;;;;;;;6.53;2.47;;;10.20;81.70;;;;;;5002518;28;20530;-69
2022/07/17 02:26:09;;;;;;;7.60;2.83;;;10.10;81.30;;;;;;5005382;28;20383;-69
2022/07/17 02:28:35;;;;;;;4.40;2.75;;;10.10;81.00;;;;;;4985016;28;20121;-69
2022/07/17 02:31:01;;;;;;;7.40;3.37;;;10.10;82.60;;;;;;4987370;28;20141;-69
2022/07/17 02:33:27;;;;;;;7.03;2.93;;;10.10;83.40;;;;;;4998289;28;20049;-69
2022/07/17 02:35:52;;;;;;;6.87;2.97;;;10.10;83.50;;;;;;4986606;28;20049;-69
2022/07/17 02:38:18;;;;;;;7.13;3.03;;;10.00;83.00;;;;;;5004108;28;20057;-69
2022/07/17 02:40:44;;;;;;;4.83;2.70;;;10.10;83.20;;;;;;5002838;28;20041;-69
2022/07/17 02:43:10;;;;;;;4.30;2.70;;;10.10;83.30;;;;;;5002830;28;20030;-69
2022/07/17 02:45:35;;;;;;;7.10;2.70;;;10.00;82.80;;;;;;4999890;28;20042;-69
2022/07/17 02:48:01;;;;;;;5.63;2.90;;;10.00;82.50;;;;;;4988665;28;20046;-68
2022/07/17 02:50:27;;;;;;;7.47;3.23;;;10.00;82.20;;;;;;4987347;28;20506;-67
2022/07/17 02:52:53;;;;;;;6.17;2.83;;;10.00;82.20;;;;;;5012401;28;20301;-67
2022/07/17 02:55:20;;;;;;;3.92;2.97;;;10.00;82.20;;;;;;4988951;28;20041;-67
2022/07/17 02:57:48;;;;;;;6.95;3.83;;;10.00;82.90;;;;;;4999768;28;20045;-67
2022/07/17 03:00:16;;;;;;;6.80;3.42;;;10.00;83.30;;;;;;4987470;28;20038;-67
2022/07/17 03:02:43;;;;;;;9.07;3.75;;;10.00;84.00;;;;;;4988027;28;20068;-67
2022/07/17 03:05:10;;;;;;;4.28;2.75;;;10.00;83.90;;;;;;5005098;28;20050;-67
2022/07/17 03:07:36;;;;;;;4.70;2.70;;;10.00;83.60;;;;;;5003623;28;20073;-67
2022/07/17 03:10:03;;;;;;;4.03;2.83;;;10.00;83.20;;;;;;4973017;28;20179;-67
2022/07/17 03:12:28;;;;;;;5.88;3.20;;;10.10;83.30;;;;;;5008287;28;20441;-68
2022/07/17 03:14:54;;;;;;;6.07;2.97;;;10.10;83.40;;;;;;4989533;28;20041;-67
2022/07/17 03:17:20;;;;;;;6.67;3.67;;;10.20;83.60;;;;;;4991866;28;20101;-67
2022/07/17 03:19:46;;;;;;;10.43;3.70;;;10.30;83.60;;;;;;5009488;28;20041;-67
2022/07/17 03:22:11;;;;;;;7.20;3.77;;;10.40;84.40;;;;;;5004599;28;20328;-67
2022/07/17 03:24:37;;;;;;;8.20;3.80;;;10.50;85.10;;;;;;4989457;28;20038;-67
2022/07/17 03:27:03;;;;;;;5.07;2.90;;;10.50;84.40;;;;;;5006477;28;20116;-67
2022/07/17 03:29:29;;;;;;;4.03;3.00;;;10.50;83.80;;;;;;4990537;28;20558;-67
2022/07/17 03:31:54;;;;;;;5.93;2.67;;;10.60;83.70;;;;;;5005748;28;20042;-67
2022/07/17 03:34:20;;;;;;;7.63;3.70;;;10.60;83.60;;;;;;4989329;28;20081;-67
2022/07/17 03:36:46;;;;;;;7.87;3.40;;;10.70;83.40;;;;;;5006992;28;20045;-67
2022/07/17 03:39:12;;;;;;;6.82;3.05;;;10.80;83.70;;;;;;4974894;28;20124;-68
2022/07/17 03:41:38;;;;;;;5.07;3.20;;;10.80;83.30;;;;;;4991242;28;20149;-68
2022/07/17 03:44:04;;;;;;;6.37;3.07;;;10.90;83.40;;;;;;4951111;28;20034;-68
2022/07/17 03:46:29;;;;;;;4.63;3.60;;;11.00;83.30;;;;;;5008068;28;20098;-67
2022/07/17 03:48:55;;;;;;;8.43;3.20;;;11.00;83.20;;;;;;4991108;28;20297;-67
2022/07/17 03:51:21;;;;;;;5.00;2.70;;;11.10;83.30;;;;;;4991394;28;20510;-68
2022/07/17 03:53:46;;;;;;;3.57;2.43;;;11.20;83.50;;;;;;5006716;28;20050;-67
2022/07/17 03:56:12;;;;;;;5.47;2.93;;;11.30;83.90;;;;;;4980586;28;20398;-68
2022/07/17 03:58:38;;;;;;;7.27;2.57;;;11.40;84.10;;;;;;5008469;28;20065;-67
2022/07/17 04:01:04;;;;;;;3.33;2.10;;;11.40;84.00;;;;;;4991644;28;20034;-67
2022/07/17 04:03:29;;;;;;;5.97;2.23;;;11.50;84.50;;;;;;5007855;28;20038;-67
2022/07/17 04:05:55;;;;;;;3.60;2.57;;;11.60;84.70;;;;;;5007876;28;20049;-67
2022/07/17 04:08:21;;;;;;;3.70;2.20;;;11.70;84.50;;;;;;5007774;28;20406;-67
2022/07/17 04:10:46;;;;;;;5.63;2.43;;;11.70;84.40;;;;;;5002375;28;20050;-68
2022/07/17 04:13:12;;;;;;;3.73;2.40;;;11.80;84.30;;;;;;5005638;28;20053;-67
2022/07/17 04:15:52;;;;;;;4.77;2.27;;;11.90;84.20;;;;;;5007498;28;20033;-67
2022/07/17 04:18:27;;;;;;;6.13;2.90;;;11.90;84.00;;;;;;5007790;28;20050;-68
2022/07/17 04:20:55;;;;;;;6.55;2.10;;;12.00;83.90;;;;;;5007661;28;20544;-68
2022/07/17 04:23:21;;;;;;;6.28;2.70;;;12.00;83.70;;;;;;5006521;28;20049;-68
2022/07/17 04:25:46;;;;;;;4.97;1.80;;;12.10;83.50;;;;;;4998244;28;20050;-68
2022/07/17 04:28:12;;;;;;;5.80;2.23;;;12.20;83.30;;;;;;5006199;28;20042;-68
2022/07/17 04:30:39;;;;;;;5.32;1.90;;;12.20;83.00;;;;;;4990399;28;20041;-68
2022/07/17 04:33:05;;;;;;;4.88;2.10;;;12.30;82.90;;;;;;4989632;28;20061;-68
2022/07/17 04:35:32;;;;;;;4.30;1.83;;;12.40;82.80;;;;;;4989212;28;20033;-69
2022/07/17 04:37:57;;;;;;;5.85;1.60;;;12.50;82.50;;;;;;4998366;28;20077;-69
2022/07/17 04:40:23;;;;;;;7.67;1.70;;;12.50;82.30;;;;;;5006974;28;20127;-69
2022/07/17 04:42:49;;;;;;;2.60;1.23;;;12.60;82.00;;;;;;5006956;28;20037;-69
2022/07/17 04:45:15;;;;;;;6.00;1.43;;;12.70;81.50;;;;;;5007496;28;20954;-69
2022/07/17 04:47:41;;;;;;;5.03;1.33;;;12.70;81.10;;;;;;5005280;28;20041;-68
2022/07/17 04:50:08;;;;;;;3.77;1.40;;;12.80;80.80;;;;;;4987757;28;20129;-68
2022/07/17 04:52:33;;;;;;;5.30;1.60;;;12.90;80.40;;;;;;5005843;28;20038;-68
2022/07/17 04:54:59;;;;;;;5.57;1.53;;;12.90;79.80;;;;;;4991684;28;20319;-68
2022/07/17 04:57:25;;;;;;;4.60;1.23;;;13.00;79.50;;;;;;5006734;28;20057;-68
2022/07/17 04:59:51;;;;;;;3.40;1.57;;;13.00;79.00;;;;;;5007089;28;20575;-68
2022/07/17 05:02:17;;;;;;;6.07;1.90;;;13.10;78.90;;;;;;5002009;28;20049;-68
2022/07/17 05:04:42;;;;;;;6.80;2.57;;;13.10;78.30;;;;;;4990977;28;20277;-68
2022/07/17 05:07:08;;;;;;;5.73;2.20;;;13.20;78.40;;;;;;4987714;28;20120;-68
2022/07/17 05:09:35;;;;;;;6.40;3.67;;;13.20;78.30;;;;;;5006822;28;20505;-68
2022/07/17 05:12:00;;;;;;;5.27;3.10;;;13.30;78.10;;;;;;5001764;28;20565;-68
2022/07/17 05:14:26;;;;;;;7.43;3.23;;;13.30;77.60;;;;;;5006310;28;20299;-68
2022/07/17 05:16:52;;;;;;;7.50;3.20;;;13.40;77.40;;;;;;5007206;28;20042;-68
2022/07/17 05:19:17;;;;;;;8.80;3.27;;;13.40;77.50;;;;;;5006829;28;20084;-68
2022/07/17 05:21:43;;;;;;;8.23;2.93;;;13.50;77.70;;;;;;4970604;28;20037;-68
2022/07/17 05:24:09;;;;;;;5.30;2.90;;;13.50;77.90;;;;;;5021564;28;20030;-68
2022/07/17 05:26:35;;;;;;;4.30;2.80;;;13.50;78.30;;;;;;5006007;28;20046;-68
2022/07/17 05:29:00;;;;;;;5.77;2.93;;;13.60;78.40;;;;;;5006273;28;20049;-68
2022/07/17 05:31:26;;;;;;;4.60;2.40;;;13.70;78.50;;;;;;5005300;28;20044;-68
2022/07/17 05:33:52;;;;;;;5.67;3.00;;;13.70;78.80;;;;;;5002929;28;20426;-68
2022/07/17 05:36:17;;;;;;;5.97;2.43;;;13.80;78.80;;;;;;5002488;28;20100;-68
2022/07/17 05:38:43;;;;;;;4.90;2.50;;;13.90;78.80;;;;;;5005740;28;20053;-68
2022/07/17 05:41:09;;;;;;;6.67;2.70;;;14.00;78.80;;;;;;5006094;28;20041;-68
2022/07/17 05:43:35;;;;;;;4.07;2.43;;;14.20;78.80;;;;;;5005369;28;20156;-68
2022/07/17 05:46:01;;;;;;;3.80;2.23;;;14.30;78.60;;;;;;4972870;28;20080;-68
2022/07/17 05:48:29;;;;;;;6.40;2.50;;;14.40;78.40;;;;;;4973803;28;20045;-68
2022/07/17 05:50:55;;;;;;;5.70;2.40;;;14.60;78.10;;;;;;5005445;28;20383;-69
2022/07/17 05:53:21;;;;;;;5.67;2.20;;;14.80;77.90;;;;;;5005335;28;20777;-68
2022/07/17 05:55:47;;;;;;;4.23;2.27;;;15.00;77.30;;;;;;5005556;28;20136;-68
2022/07/17 05:58:13;;;;;;;8.77;3.10;;;15.10;76.90;;;;;;4986708;28;20285;-68
2022/07/17 06:00:38;;;;;;;6.43;2.77;;;15.30;76.70;;;;;;4954713;28;20038;-68
2022/07/17 06:03:05;;;;;;;7.57;2.87;;;15.60;76.20;;;;;;5005586;28;20436;-68
2022/07/17 06:05:30;;;;;;;7.33;2.40;;;16.00;76.00;;;;;;5021028;28;20099;-68
2022/07/17 06:07:57;;;;;;;8.10;3.00;;;16.50;74.50;;;;;;5001946;28;20300;-68
2022/07/17 06:10:24;;;;;;;4.37;2.37;;;16.80;73.50;;;;;;5004822;28;20088;-68
2022/07/17 06:12:52;;;;;;;10.30;3.13;;;17.10;72.30;;;;;;4999754;28;20419;-68
2022/07/17 06:15:19;;;;;;;4.47;2.60;;;17.30;71.20;;;;;;5003745;28;20316;-68
2022/07/17 06:17:45;;;;;;;4.83;2.20;;;17.40;70.90;;;;;;5005456;28;20285;-68
2022/07/17 06:20:12;;;;;;;6.93;1.87;;;17.40;69.90;;;;;;5005601;28;20288;-68
2022/07/17 06:22:39;;;;;;;2.80;1.77;;;17.40;70.00;;;;;;4999082;28;20326;-69
2022/07/17 06:25:05;;;;;;;4.50;1.83;;;17.60;70.00;;;;;;5005317;28;20289;-69
2022/07/17 06:27:30;;;;;;;3.37;1.30;;;18.20;68.70;;;;;;5005774;28;20297;-69
2022/07/17 06:29:56;;;;;;;3.47;1.40;;;18.90;66.80;;;;;;5004516;28;20648;-69
2022/07/17 06:32:22;;;;;;;4.30;1.63;;;19.50;65.30;;;;;;5004853;28;20046;-68
2022/07/17 06:34:47;;;;;;;4.33;1.40;;;20.10;63.90;;;;;;5005005;28;20033;-68
2022/07/17 06:37:13;;;;;;;4.87;1.87;;;20.80;62.70;;;;;;5003806;28;20045;-68
2022/07/17 06:39:39;;;;;;;4.10;1.50;;;21.30;60.70;;;;;;4987329;28;20042;-68
2022/07/17 06:42:04;;;;;;;4.50;1.87;;;21.20;60.30;;;;;;5001445;28;20044;-68
2022/07/17 06:44:30;;;;;;;5.07;0.93;;;20.70;61.10;;;;;;4983090;28;20120;-68
2022/07/17 06:46:56;;;;;;;5.33;0.97;;;20.10;61.80;;;;;;4988583;28;20042;-68
2022/07/17 06:49:22;;;;;;;9.13;1.00;;;19.50;62.60;;;;;;4984668;28;20354;-68
2022/07/17 06:51:47;;;;;;;4.13;1.33;;;19.10;62.60;;;;;;4988471;28;20080;-68
2022/07/17 06:54:15;;;;;;;4.33;0.87;;;18.80;64.20;;;;;;5004136;28;20034;-68
2022/07/17 06:56:41;;;;;;;5.20;0.87;;;18.50;64.30;;;;;;4988317;28;20113;-68
2022/07/17 06:59:07;;;;;;;4.80;0.77;;;18.30;64.40;;;;;;5004139;28;20303;-68
2022/07/17 07:01:37;;;;;;;4.93;1.20;;;18.20;64.40;;;;;;5001667;28;20289;-68
2022/07/17 07:04:03;;;;;;;4.77;0.90;;;18.20;64.70;;;;;;5015136;28;20046;-68
2022/07/17 07:06:29;;;;;;;4.27;0.93;;;18.10;64.00;;;;;;5003148;28;20289;-68
2022/07/17 07:08:55;;;;;;;4.63;0.70;;;18.20;64.10;;;;;;5003527;28;20381;-68
2022/07/17 07:11:21;;;;;;;3.47;0.70;;;18.10;63.80;;;;;;4970477;28;20811;-68
2022/07/17 07:13:47;;;;;;;5.00;0.60;;;18.20;63.80;;;;;;4988124;28;20042;-68
2022/07/17 07:16:13;;;;;;;2.23;0.73;;;18.30;63.30;;;;;;5004724;28;20297;-68
2022/07/17 07:18:38;;;;;;;3.07;0.30;;;18.40;62.40;;;;;;4988607;28;20121;-68
2022/07/17 07:21:04;;;;;;;2.83;0.60;;;18.50;62.30;;;;;;5004812;28;20038;-67
2022/07/17 07:23:30;;;;;;;4.67;0.60;;;18.50;62.50;;;;;;4986769;28;20434;-67
2022/07/17 07:25:55;;;;;;;6.87;0.73;;;18.40;61.90;;;;;;5004855;28;20049;-68
2022/07/17 07:28:22;;;;;;;5.63;0.53;;;18.40;61.80;;;;;;4988991;28;20050;-67
2022/07/17 07:30:47;;;;;;;5.30;1.00;;;18.40;62.10;;;;;;5003793;28;20122;-67
2022/07/17 07:33:13;;;;;;;3.67;0.53;;;18.40;61.80;;;;;;5004456;28;20300;-67
2022/07/17 07:35:39;;;;;;;6.60;0.93;;;18.30;62.10;;;;;;4986457;28;20069;-68
2022/07/17 07:38:05;;;;;;;9.60;0.90;;;18.30;62.50;;;;;;4988629;28;20049;-68
2022/07/17 07:40:31;;;;;;;5.83;0.63;;;18.40;63.00;;;;;;5003648;28;20483;-68
2022/07/17 07:42:57;;;;;;;3.77;0.50;;;18.40;62.70;;;;;;5004666;28;20045;-69
2022/07/17 07:45:23;;;;;;;4.57;0.60;;;18.40;62.60;;;;;;5004685;28;20108;-69
2022/07/17 07:47:50;;;;;;;4.93;0.50;;;18.50;62.20;;;;;;5000803;28;20303;-69
2022/07/17 07:50:17;;;;;;;2.80;0.63;;;18.50;61.70;;;;;;5004090;28;20300;-69
2022/07/17 07:52:43;;;;;;;3.13;0.60;;;18.50;62.20;;;;;;4987724;28;20823;-68
2022/07/17 07:55:13;;;;;;;3.17;0.47;;;18.70;62.40;;;;;;5004017;28;20304;-68
2022/07/17 07:57:39;;;;;;;2.13;0.40;;;18.80;62.30;;;;;;5016071;28;20290;-68
2022/07/17 08:00:07;;;;;;;4.50;0.80;;;18.90;61.70;;;;;;4997497;28;20351;-68
2022/07/17 08:02:33;;;;;;;4.97;0.70;;;18.90;61.70;;;;;;5007711;28;20041;-68
2022/07/17 08:04:59;;;;;;;5.80;0.40;;;19.00;62.20;;;;;;5008832;28;20819;-68
2022/07/17 08:07:28;;;;;;;4.40;0.80;;;19.00;62.00;;;;;;4991182;28;20305;-68
2022/07/17 08:09:55;;;;;;;3.87;0.47;;;19.10;62.00;;;;;;5008143;28;20046;-68
2022/07/17 08:12:21;;;;;;;4.83;0.80;;;19.20;61.80;;;;;;5007880;28;20824;-68
2022/07/17 08:14:47;;;;;;;4.20;0.53;;;19.30;62.10;;;;;;4991416;28;20281;-68
2022/07/17 08:17:12;;;;;;;4.10;0.40;;;19.40;62.00;;;;;;5002857;28;20321;-68
2022/07/17 08:19:38;;;;;;;4.90;0.77;;;19.40;61.20;;;;;;4991079;28;20479;-68
2022/07/17 08:22:03;;;;;;;3.17;0.40;;;19.40;61.10;;;;;;4990920;28;20220;-68
2022/07/17 08:24:29;;;;;;;4.73;0.50;;;19.50;61.50;;;;;;4991868;28;20099;-68
2022/07/17 08:26:55;;;;;;;2.60;0.30;;;19.60;61.00;;;;;;5008679;28;20044;-68
2022/07/17 08:29:21;;;;;;;3.57;0.50;;;19.60;60.90;;;;;;5007438;28;20038;-68
2022/07/17 08:31:46;;;;;;;1.00;0.33;;;19.60;61.20;;;;;;5002390;28;20045;-68
2022/07/17 08:34:14;;;;;;;3.60;0.30;;;19.80;61.50;;;;;;5007050;28;20071;-68
2022/07/17 08:36:40;;;;;;;3.63;1.00;;;19.80;60.80;;;;;;5004734;28;20037;-68
2022/07/17 08:39:07;;;;;;;5.53;0.60;;;19.70;60.20;;;;;;5007183;28;20133;-68
2022/07/17 08:41:38;;;;;;;4.77;1.17;;;19.80;60.10;;;;;;5005975;28;20038;-68
2022/07/17 08:44:08;;;;;;;7.17;0.53;;;19.90;60.50;;;;;;5017512;28;20281;-68
2022/07/17 08:46:38;;;;;;;2.97;0.40;;;20.10;61.20;;;;;;4989401;28;20034;-69
2022/07/17 08:49:06;;;;;;;3.77;0.50;;;20.20;59.90;;;;;;4989441;28;20093;-69
2022/07/17 08:51:33;;;;;;;2.63;0.40;;;20.30;59.90;;;;;;4995661;28;20053;-69
2022/07/17 08:53:59;;;;;;;2.87;0.37;;;20.40;59.90;;;;;;5005294;28;20049;-69
2022/07/17 08:56:25;;;;;;;4.17;0.87;;;20.50;59.70;;;;;;5006686;28;20045;-69
2022/07/17 08:58:51;;;;;;;2.13;0.40;;;20.60;59.10;;;;;;4990180;28;20107;-69
2022/07/17 09:01:19;;;;;;;2.53;0.80;;;20.70;59.20;;;;;;5005218;28;20045;-69
2022/07/17 09:04:07;;;;;;;5.17;0.50;;;20.80;59.10;;;;;;5004130;28;20045;-69
2022/07/17 09:06:33;;;;;;;2.10;0.37;;;21.00;58.70;;;;;;5010988;28;20116;-69
2022/07/17 09:09:01;;;;;;;4.00;0.50;;;21.10;58.50;;;;;;5016903;28;20085;-69
2022/07/17 09:11:40;;;;;;;2.63;0.40;;;21.10;58.00;;;;;;5005159;28;20119;-69
2022/07/17 09:14:06;;;;;;;3.43;0.53;;;21.20;58.10;;;;;;5004583;28;20073;-70
2022/07/17 09:16:35;;;;;;;3.40;0.70;;;21.30;57.70;;;;;;5007014;28;20033;-70
2022/07/17 09:19:00;;;;;;;3.10;0.47;;;21.30;56.30;;;;;;5004089;28;20056;-70
2022/07/17 09:21:28;;;;;;;2.67;0.50;;;21.30;56.10;;;;;;5006444;28;20523;-69
2022/07/17 09:24:07;;;;;;;3.47;0.43;;;21.40;57.00;;;;;;5006130;28;20046;-69
2022/07/17 09:26:34;;;;;;;3.13;0.50;;;21.50;55.40;;;;;;5004486;28;20042;-69
2022/07/17 09:29:04;;;;;;;3.20;0.50;;;21.50;56.10;;;;;;5004801;28;20463;-69
2022/07/17 09:31:32;;;;;;;3.87;0.97;;;21.60;56.10;;;;;;5002689;28;20060;-69
2022/07/17 09:33:59;;;;;;;2.40;0.60;;;21.70;56.00;;;;;;5020683;28;20053;-69
2022/07/17 09:36:25;;;;;;;2.67;0.50;;;21.70;55.70;;;;;;5002442;28;20038;-69
2022/07/17 09:38:55;;;;;;;2.43;0.40;;;21.80;55.40;;;;;;4989191;28;20049;-69
2022/07/17 09:41:23;;;;;;;2.20;0.60;;;21.90;55.10;;;;;;4989931;28;20041;-69
2022/07/17 09:43:58;;;;;;;2.00;0.50;;;21.90;55.00;;;;;;5007254;28;20088;-68
2022/07/17 09:46:26;;;;;;;4.50;0.50;;;22.00;55.00;;;;;;5023598;28;20053;-68
2022/07/17 09:49:00;;;;;;;2.47;0.63;;;21.80;55.60;;;;;;5006914;28;20116;-68
2022/07/17 09:51:28;;;;;;;4.80;0.63;;;21.80;56.30;;;;;;5015409;28;20470;-68
2022/07/17 09:53:59;;;;;;;4.00;0.67;;;22.00;55.80;;;;;;5002467;28;20038;-69
2022/07/17 09:56:27;;;;;;;3.53;0.53;;;22.10;54.60;;;;;;5021725;28;20049;-68
2022/07/17 09:59:06;;;;;;;2.80;0.60;;;22.10;54.10;;;;;;5004780;28;20073;-68
2022/07/17 10:01:33;;;;;;;2.10;0.37;;;22.20;55.00;;;;;;4986429;28;20374;-69
2022/07/17 10:03:59;;;;;;;3.57;0.77;;;22.40;54.70;;;;;;4987206;28;20046;-69
2022/07/17 10:06:26;;;;;;;4.47;0.60;;;22.50;54.40;;;;;;5007098;28;20095;-69
2022/07/17 10:08:53;;;;;;;2.17;0.50;;;22.60;54.30;;;;;;5006616;28;20054;-69
2022/07/17 10:11:21;;;;;;;3.53;0.80;;;22.80;54.30;;;;;;5003137;28;20085;-69
2022/07/17 10:13:48;;;;;;;3.77;0.50;;;22.70;53.40;;;;;;5005982;28;20439;-70
2022/07/17 10:16:26;;;;;;;3.50;0.60;;;22.70;53.50;;;;;;4990568;28;20056;-70
2022/07/17 10:18:54;;;;;;;2.97;0.87;;;22.70;53.90;;;;;;4989404;28;20108;-69
2022/07/17 10:21:21;;;;;;;2.50;0.53;;;22.60;53.50;;;;;;4973016;28;20037;-69
2022/07/17 10:23:53;;;;;;;2.57;0.50;;;22.60;53.80;;;;;;5005649;28;20049;-69
2022/07/17 10:26:38;;;;;;;2.30;0.47;;;22.70;54.30;;;;;;4990451;28;20129;-69
2022/07/17 10:29:08;;;;;;;3.95;0.50;;;22.90;53.80;;;;;;5005938;28;20041;-69
2022/07/17 10:31:34;;;;;;;1.57;0.40;;;23.10;53.70;;;;;;4987157;28;20132;-69
2022/07/17 10:34:05;;;;;;;1.43;0.50;;;23.30;53.00;;;;;;5005124;28;20136;-69
2022/07/17 10:36:40;;;;;;;1.77;0.60;;;23.30;52.20;;;;;;5003277;28;20034;-69
2022/07/17 10:39:20;;;;;;;1.63;0.50;;;23.40;52.80;;;;;;4998195;28;20096;-69
2022/07/17 10:41:57;;;;;;;3.23;0.47;;;23.50;52.70;;;;;;5005765;28;20057;-68
2022/07/17 10:44:27;;;;;;;3.80;0.52;;;23.60;52.10;;;;;;5005999;28;20128;-68
2022/07/17 10:46:54;;;;;;;3.30;0.50;;;23.80;52.70;;;;;;4989524;28;20046;-68
2022/07/17 10:49:20;;;;;;;3.13;0.60;;;23.90;52.10;;;;;;5005297;28;20593;-69
2022/07/17 10:51:46;;;;;;;2.47;0.67;;;23.90;51.30;;;;;;4989084;28;20124;-68
2022/07/17 10:54:12;;;;;;;1.90;0.60;;;23.90;50.90;;;;;;4988633;28;20038;-69
2022/07/17 10:56:44;;;;;;;2.93;0.70;;;23.90;50.70;;;;;;4989891;28;20037;-68
2022/07/17 10:59:10;;;;;;;1.67;0.60;;;24.00;51.70;;;;;;5004319;28;20771;-69
2022/07/17 11:01:36;;;;;;;2.20;0.40;;;23.90;51.70;;;;;;5003653;28;20053;-69
2022/07/17 11:04:02;;;;;;;3.27;0.80;;;23.90;52.20;;;;;;5004158;28;20037;-68
2022/07/17 11:06:31;;;;;;;2.20;0.70;;;24.10;50.80;;;;;;4987365;28;20574;-69
2022/07/17 11:09:08;;;;;;;1.70;0.60;;;24.10;50.70;;;;;;5004972;28;20057;-69
2022/07/17 11:11:58;;;;;;;2.30;0.60;;;24.00;51.00;;;;;;4983904;28;20042;-68
2022/07/17 11:14:26;;;;;;;2.73;0.73;;;24.00;51.10;;;;;;5000099;28;20041;-68
2022/07/17 11:16:59;;;;;;;1.67;0.70;;;24.10;50.90;;;;;;5019555;28;20042;-69
2022/07/17 11:19:33;;;;;;;1.70;0.60;;;24.20;50.30;;;;;;4999420;28;20038;-69
2022/07/17 11:22:04;;;;;;;3.83;0.75;;;24.30;50.30;;;;;;4985008;28;20545;-69
2022/07/17 11:24:38;;;;;;;2.60;0.70;;;24.50;49.70;;;;;;5005668;28;20129;-70
2022/07/17 11:27:04;;;;;;;2.10;0.73;;;24.70;49.20;;;;;;5006302;28;20128;-69
2022/07/17 11:29:29;;;;;;;1.80;0.80;;;24.70;49.30;;;;;;5004513;28;20045;-70
2022/07/17 11:31:56;;;;;;;4.57;0.73;;;24.60;49.50;;;;;;4987096;28;20057;-69
2022/07/17 11:34:25;;;;;;;3.87;1.53;;;24.20;48.60;;;;;;4993529;28;20069;-69
2022/07/17 11:36:50;;;;;;;3.67;0.70;;;24.00;50.20;;;;;;5004950;28;20075;-68
2022/07/17 11:39:18;;;;;;;2.40;0.70;;;24.10;50.30;;;;;;5006652;28;20045;-69
2022/07/17 11:41:52;;;;;;;2.23;0.73;;;24.20;49.10;;;;;;5001416;28;20057;-70
2022/07/17 11:44:20;;;;;;;2.10;0.70;;;24.50;48.90;;;;;;4978487;28;20043;-71
2022/07/17 11:46:48;;;;;;;1.97;0.97;;;24.70;48.30;;;;;;5009970;28;20046;-69
2022/07/17 11:49:33;;;;;;;2.77;1.20;;;24.90;47.50;;;;;;5007154;28;20054;-69
2022/07/17 11:52:14;;;;;;;3.43;0.77;;;25.10;47.70;;;;;;5005455;28;20042;-68
2022/07/17 11:54:50;;;;;;;1.43;0.90;;;24.70;47.30;;;;;;5009015;28;20593;-70
2022/07/17 11:57:18;;;;;;;5.40;1.30;;;24.70;46.60;;;;;;5004043;28;20042;-69
2022/07/17 11:59:45;;;;;;;5.80;1.07;;;24.70;46.50;;;;;;5020327;28;20049;-69
2022/07/17 12:02:13;;;;;;;2.60;1.00;;;24.80;47.10;;;;;;5009004;28;20038;-70
2022/07/17 12:04:50;;;;;;;4.70;1.37;;;24.90;47.50;;;;;;5008591;28;20030;-69
2022/07/17 12:07:17;;;;;;;2.93;0.93;;;25.00;47.10;;;;;;4992132;28;20064;-69
2022/07/17 12:09:42;;;;;;;2.13;0.90;;;25.10;48.00;;;;;;5004263;28;20049;-69
2022/07/17 12:12:22;;;;;;;4.80;1.30;;;24.90;47.50;;;;;;5009609;28;20433;-70
2022/07/17 12:14:57;;;;;;;3.63;1.20;;;24.70;46.50;;;;;;5003408;28;20068;-69
2022/07/17 12:17:24;;;;;;;2.43;1.03;;;24.90;47.90;;;;;;5007718;28;20057;-70
2022/07/17 12:19:53;;;;;;;2.60;0.90;;;25.00;47.40;;;;;;5009081;28;20141;-69
2022/07/17 12:22:19;;;;;;;3.40;1.10;;;25.20;47.60;;;;;;4991596;28;20478;-69
2022/07/17 12:24:46;;;;;;;2.20;1.00;;;25.40;47.10;;;;;;4985946;28;20048;-71
2022/07/17 12:27:16;;;;;;;3.50;1.00;;;25.70;46.90;;;;;;5006159;28;20069;-69
2022/07/17 12:29:43;;;;;;;3.60;1.23;;;25.60;46.60;;;;;;5007885;28;20046;-70
2022/07/17 12:32:12;;;;;;;3.27;0.90;;;25.60;47.30;;;;;;4997122;28;20038;-69
2022/07/17 12:34:44;;;;;;;2.23;1.23;;;25.60;47.10;;;;;;5007780;28;20712;-69
2022/07/17 12:37:15;;;;;;;2.10;1.20;;;25.50;47.70;;;;;;4986967;28;20031;-69
2022/07/17 12:39:41;;;;;;;3.80;1.27;;;25.30;47.50;;;;;;5001991;28;20089;-70
2022/07/17 12:42:09;;;;;;;5.93;1.37;;;25.30;47.60;;;;;;4985106;28;20076;-70
2022/07/17 12:44:35;;;;;;;3.77;0.93;;;25.30;47.80;;;;;;4999734;28;20494;-70
2022/07/17 12:47:01;;;;;;;1.97;1.07;;;25.30;47.00;;;;;;5000582;28;20088;-69
2022/07/17 12:49:27;;;;;;;3.40;1.07;;;25.50;46.80;;;;;;4982380;28;20049;-71